Time;durP1;ratioP1;P1;durP2;ratioP2;P2;SDS_P1;SDS_P2;PMS_P1;PMS_P2;Temp;Humidity;BMP_temperature;BMP_pressure;BME280_temperature;BME280_humidity;BME280_pressure;Samples;Min_cycle;Max_cycle;Signal;HPM_P1;HPM_P2
2023/09/14 00:00:44;;;;;;;4.75;1.63;;;9.40;99.90;;;;;;5028129;28;20040;-78
2023/09/14 00:03:10;;;;;;;4.95;1.65;;;9.40;99.90;;;;;;5005777;28;20084;-78
2023/09/14 00:05:40;;;;;;;5.45;2.13;;;9.40;99.90;;;;;;5014125;28;20495;-78
2023/09/14 00:08:06;;;;;;;3.17;1.85;;;9.30;99.90;;;;;;5030521;28;20056;-78
2023/09/14 00:10:32;;;;;;;3.10;1.25;;;9.30;99.90;;;;;;5021899;28;20522;-78
2023/09/14 00:12:58;;;;;;;3.33;1.75;;;9.20;99.90;;;;;;5038644;28;20113;-79
2023/09/14 00:15:24;;;;;;;4.00;1.50;;;9.20;99.90;;;;;;5010373;28;20052;-78
2023/09/14 00:17:50;;;;;;;3.67;1.73;;;9.20;99.90;;;;;;5008302;28;20744;-78
2023/09/14 00:20:23;;;;;;;6.18;1.92;;;9.20;99.90;;;;;;5033643;28;20048;-78
2023/09/14 00:22:50;;;;;;;6.18;1.83;;;9.20;99.90;;;;;;5027284;28;20052;-78
2023/09/14 00:25:17;;;;;;;6.30;1.77;;;9.10;99.90;;;;;;5049251;28;20041;-78
2023/09/14 00:27:43;;;;;;;3.70;1.70;;;9.10;99.90;;;;;;5020871;28;20037;-78
2023/09/14 00:30:09;;;;;;;6.68;2.20;;;9.10;99.90;;;;;;5006268;28;20038;-78
2023/09/14 00:32:39;;;;;;;2.83;1.50;;;9.10;99.90;;;;;;5024709;28;20120;-78
2023/09/14 00:35:06;;;;;;;4.60;2.30;;;9.10;99.90;;;;;;5013144;28;20051;-78
2023/09/14 00:37:32;;;;;;;4.35;2.00;;;9.20;99.90;;;;;;5022294;28;20168;-78
2023/09/14 00:39:58;;;;;;;4.70;2.60;;;9.30;99.90;;;;;;5010657;28;20095;-78
2023/09/14 00:42:24;;;;;;;4.82;2.20;;;9.30;99.90;;;;;;5015626;28;20045;-78
2023/09/14 00:44:49;;;;;;;8.35;2.67;;;9.40;99.90;;;;;;5008542;28;20132;-78
2023/09/14 00:47:15;;;;;;;5.05;2.40;;;9.40;99.90;;;;;;5014513;28;20470;-78
2023/09/14 00:49:41;;;;;;;5.63;2.03;;;9.50;99.90;;;;;;5016440;28;20052;-78
2023/09/14 00:52:07;;;;;;;4.95;2.92;;;9.50;99.90;;;;;;5024465;28;20052;-78
2023/09/14 00:54:33;;;;;;;4.63;2.47;;;9.50;99.90;;;;;;5031778;28;20053;-78
2023/09/14 00:56:59;;;;;;;5.93;3.05;;;9.60;99.90;;;;;;5027504;28;20121;-78
2023/09/14 00:59:26;;;;;;;8.77;2.63;;;9.60;99.90;;;;;;5014017;28;20067;-78
2023/09/14 01:01:51;;;;;;;5.22;2.20;;;9.60;99.90;;;;;;5016460;28;20036;-78
2023/09/14 01:04:17;;;;;;;5.88;2.40;;;9.60;99.90;;;;;;5033004;28;20057;-78
2023/09/14 01:06:43;;;;;;;7.80;2.83;;;9.60;99.90;;;;;;5033291;28;20055;-79
2023/09/14 01:09:09;;;;;;;6.28;2.58;;;9.60;99.90;;;;;;5011730;28;20072;-78
2023/09/14 01:11:35;;;;;;;5.22;2.80;;;9.60;99.90;;;;;;5021541;28;20748;-78
2023/09/14 01:14:11;;;;;;;7.60;2.28;;;9.60;99.90;;;;;;5016794;28;20120;-78
2023/09/14 01:16:46;;;;;;;5.80;2.40;;;9.60;99.90;;;;;;5013574;28;20223;-78
2023/09/14 01:19:41;;;;;;;5.60;2.60;;;9.60;99.90;;;;;;5025421;28;20060;-78
2023/09/14 01:22:21;;;;;;;5.40;2.40;;;9.60;99.90;;;;;;5006588;28;20164;-78
2023/09/14 01:24:52;;;;;;;7.03;2.88;;;9.60;99.90;;;;;;5026486;28;20037;-78
2023/09/14 01:27:19;;;;;;;3.53;2.35;;;9.60;99.90;;;;;;5015382;28;20045;-78
2023/09/14 01:29:44;;;;;;;5.13;2.53;;;9.60;99.90;;;;;;5029488;28;20045;-78
2023/09/14 01:32:11;;;;;;;6.82;2.60;;;9.60;99.90;;;;;;5012267;28;20103;-79
2023/09/14 01:34:37;;;;;;;6.88;2.15;;;9.60;99.90;;;;;;5012518;28;20770;-78
2023/09/14 01:37:04;;;;;;;5.18;2.22;;;9.50;99.90;;;;;;5014995;28;20415;-78
2023/09/14 01:39:31;;;;;;;5.85;1.90;;;9.50;99.90;;;;;;5032337;28;20385;-78
2023/09/14 01:41:57;;;;;;;4.60;2.05;;;9.50;99.90;;;;;;5051316;28;20170;-79
2023/09/14 01:44:27;;;;;;;3.45;2.00;;;9.50;99.90;;;;;;5049852;28;20116;-78
2023/09/14 01:46:54;;;;;;;5.25;3.22;;;9.50;99.90;;;;;;5051824;28;20059;-78
2023/09/14 01:49:20;;;;;;;4.55;2.13;;;9.50;99.90;;;;;;5049753;28;20413;-78
2023/09/14 01:51:45;;;;;;;9.20;2.80;;;9.40;99.90;;;;;;5033257;28;20048;-78
2023/09/14 01:54:11;;;;;;;5.70;2.55;;;9.40;99.90;;;;;;5023432;28;20047;-78
2023/09/14 01:56:37;;;;;;;5.78;2.67;;;9.40;99.90;;;;;;5049906;28;20041;-78
2023/09/14 01:59:03;;;;;;;4.43;2.17;;;9.40;99.90;;;;;;5051507;28;20036;-79
2023/09/14 02:01:29;;;;;;;4.97;2.08;;;9.40;99.90;;;;;;5034860;28;20089;-78
2023/09/14 02:03:54;;;;;;;5.90;2.13;;;9.40;99.90;;;;;;5047798;28;20187;-78
2023/09/14 02:06:20;;;;;;;4.88;1.92;;;9.40;99.90;;;;;;5045128;28;20620;-78
2023/09/14 02:08:46;;;;;;;4.70;2.00;;;9.30;99.90;;;;;;5050128;28;20129;-78
2023/09/14 02:11:13;;;;;;;5.00;1.60;;;9.30;99.90;;;;;;5051681;28;20101;-78
2023/09/14 02:13:42;;;;;;;5.38;1.70;;;9.20;99.90;;;;;;5062957;28;20539;-78
2023/09/14 02:16:08;;;;;;;3.13;1.30;;;9.20;99.90;;;;;;5036064;28;20040;-78
2023/09/14 02:18:34;;;;;;;3.97;1.33;;;9.20;99.90;;;;;;5049526;28;20104;-79
2023/09/14 02:21:00;;;;;;;3.10;1.65;;;9.10;99.90;;;;;;5031435;28;20036;-78
2023/09/14 02:23:25;;;;;;;4.80;1.88;;;9.10;99.90;;;;;;5049406;28;20390;-79
2023/09/14 02:25:51;;;;;;;3.50;1.90;;;9.00;99.90;;;;;;5048866;28;20116;-78
2023/09/14 02:28:19;;;;;;;4.40;1.92;;;9.00;99.90;;;;;;5043001;28;20394;-78
2023/09/14 02:30:45;;;;;;;7.88;1.95;;;8.90;99.90;;;;;;5037807;28;20044;-78
2023/09/14 02:33:11;;;;;;;4.80;1.80;;;8.80;99.90;;;;;;5061421;28;20209;-79
2023/09/14 02:35:38;;;;;;;4.88;2.53;;;8.80;99.90;;;;;;5045097;28;20105;-78
2023/09/14 02:38:04;;;;;;;4.22;1.85;;;8.80;99.90;;;;;;5051226;28;20555;-78
2023/09/14 02:40:30;;;;;;;4.78;1.85;;;8.70;99.90;;;;;;5046959;28;20053;-79
2023/09/14 02:42:56;;;;;;;3.25;1.85;;;8.70;99.90;;;;;;5037377;28;20409;-78
2023/09/14 02:45:22;;;;;;;5.43;1.95;;;8.70;99.90;;;;;;5033107;28;20104;-79
2023/09/14 02:47:47;;;;;;;5.95;2.50;;;8.60;99.90;;;;;;5033909;28;20553;-78
2023/09/14 02:50:13;;;;;;;3.63;2.40;;;8.60;99.90;;;;;;5033419;28;20033;-79
2023/09/14 02:52:39;;;;;;;5.03;2.00;;;8.50;99.90;;;;;;5050332;28;20032;-79
2023/09/14 02:55:04;;;;;;;4.55;1.83;;;8.50;99.90;;;;;;5033428;28;20029;-78
2023/09/14 02:57:30;;;;;;;7.90;2.10;;;8.50;99.90;;;;;;5055817;28;20048;-78
2023/09/14 02:59:56;;;;;;;4.53;1.90;;;8.40;99.90;;;;;;5047935;28;20044;-78
2023/09/14 03:02:22;;;;;;;5.50;2.30;;;8.40;99.90;;;;;;5047451;28;20037;-78
2023/09/14 03:04:48;;;;;;;5.25;2.55;;;8.40;99.90;;;;;;5052048;28;20036;-78
2023/09/14 03:07:15;;;;;;;3.72;1.98;;;8.30;99.90;;;;;;5031260;28;20102;-78
2023/09/14 03:09:41;;;;;;;3.33;2.08;;;8.20;99.90;;;;;;5040713;28;20054;-78
2023/09/14 03:12:07;;;;;;;4.45;1.90;;;8.20;99.90;;;;;;5048677;28;20047;-78
2023/09/14 03:14:33;;;;;;;3.85;1.92;;;8.20;99.90;;;;;;5030819;28;20044;-78
2023/09/14 03:16:58;;;;;;;4.38;2.10;;;8.20;99.90;;;;;;5050473;28;20102;-78
2023/09/14 03:19:24;;;;;;;3.03;1.75;;;8.20;99.90;;;;;;5037539;28;20042;-78
2023/09/14 03:21:50;;;;;;;4.53;1.77;;;8.20;99.90;;;;;;5047869;28;20044;-78
2023/09/14 03:24:16;;;;;;;5.55;2.45;;;8.10;99.90;;;;;;5040111;28;20083;-78
2023/09/14 03:26:42;;;;;;;3.28;2.00;;;8.10;99.90;;;;;;5033941;28;20677;-78
2023/09/14 03:29:08;;;;;;;6.38;1.92;;;8.10;99.90;;;;;;5032390;28;20123;-78
2023/09/14 03:31:35;;;;;;;6.70;2.22;;;8.00;99.90;;;;;;5043320;28;20064;-78
2023/09/14 03:34:00;;;;;;;4.18;2.00;;;8.00;99.90;;;;;;5047757;28;20057;-78
2023/09/14 03:36:27;;;;;;;7.30;2.00;;;8.00;99.90;;;;;;5041319;28;20049;-79
2023/09/14 03:38:52;;;;;;;4.05;1.55;;;8.00;99.90;;;;;;5046260;28;20047;-78
2023/09/14 03:41:18;;;;;;;5.55;2.05;;;7.90;99.90;;;;;;5046934;28;20438;-78
2023/09/14 03:43:44;;;;;;;6.90;2.15;;;7.90;99.90;;;;;;5045341;28;20123;-79
2023/09/14 03:46:13;;;;;;;3.50;1.80;;;7.80;99.90;;;;;;5056688;28;20117;-78
2023/09/14 03:48:38;;;;;;;4.28;2.00;;;7.80;99.90;;;;;;5051580;28;20040;-78
2023/09/14 03:51:04;;;;;;;3.25;1.70;;;7.80;99.90;;;;;;5051930;28;20163;-79
2023/09/14 03:53:30;;;;;;;3.53;2.10;;;7.80;99.90;;;;;;5046697;28;20125;-78
2023/09/14 03:55:57;;;;;;;4.20;2.33;;;7.80;99.90;;;;;;5050139;28;20414;-78
2023/09/14 03:58:23;;;;;;;4.50;2.10;;;7.80;99.90;;;;;;5024342;28;20123;-79
2023/09/14 04:00:49;;;;;;;5.85;2.10;;;7.80;99.90;;;;;;5030377;28;20044;-78
2023/09/14 04:03:17;;;;;;;4.07;1.60;;;7.70;99.90;;;;;;5051029;28;20037;-78
2023/09/14 04:05:43;;;;;;;4.22;2.05;;;7.70;99.90;;;;;;5042186;28;20481;-78
2023/09/14 04:08:09;;;;;;;4.40;2.00;;;7.70;99.90;;;;;;5040229;28;20115;-78
2023/09/14 04:10:38;;;;;;;2.67;1.70;;;7.70;99.90;;;;;;5043841;28;20123;-78
2023/09/14 04:13:27;;;;;;;3.17;1.50;;;7.60;99.90;;;;;;5032142;28;20037;-78
2023/09/14 04:15:53;;;;;;;2.30;1.50;;;7.70;99.90;;;;;;5059451;28;20083;-78
2023/09/14 04:18:19;;;;;;;4.68;1.90;;;7.60;99.90;;;;;;5051687;28;20041;-78
2023/09/14 04:20:47;;;;;;;2.90;1.65;;;7.60;99.90;;;;;;5053712;28;20051;-78
2023/09/14 04:23:13;;;;;;;6.63;2.08;;;7.60;99.90;;;;;;5037317;28;20401;-78
2023/09/14 04:25:45;;;;;;;2.92;1.65;;;7.50;99.90;;;;;;5037774;28;20107;-78
2023/09/14 04:28:16;;;;;;;4.18;1.60;;;7.50;99.90;;;;;;5044937;28;20052;-77
2023/09/14 04:30:43;;;;;;;5.22;1.88;;;7.50;99.90;;;;;;5042726;28;20052;-77
2023/09/14 04:33:10;;;;;;;3.60;1.50;;;7.50;99.90;;;;;;5044073;28;20376;-78
2023/09/14 04:35:36;;;;;;;3.38;1.50;;;7.40;99.90;;;;;;5040806;28;20052;-77
2023/09/14 04:38:01;;;;;;;5.80;1.77;;;7.40;99.90;;;;;;5052467;28;20028;-77
2023/09/14 04:40:27;;;;;;;3.38;1.70;;;7.40;99.90;;;;;;5045157;28;20090;-78
2023/09/14 04:42:52;;;;;;;5.82;1.65;;;7.40;99.90;;;;;;5037083;28;20131;-78
2023/09/14 04:45:18;;;;;;;3.78;1.60;;;7.40;99.90;;;;;;5039289;28;20028;-78
2023/09/14 04:47:44;;;;;;;4.68;1.70;;;7.30;99.90;;;;;;5066635;28;20533;-78
2023/09/14 04:50:09;;;;;;;2.92;1.48;;;7.30;99.90;;;;;;5033012;28;20076;-78
2023/09/14 04:52:35;;;;;;;3.95;2.00;;;7.30;99.90;;;;;;5032427;28;20044;-78
2023/09/14 04:55:01;;;;;;;4.10;1.70;;;7.30;99.90;;;;;;5050127;28;20041;-78
2023/09/14 04:57:26;;;;;;;5.05;1.60;;;7.30;99.90;;;;;;5056116;28;20052;-77
2023/09/14 04:59:52;;;;;;;2.22;1.50;;;7.30;99.90;;;;;;5046336;28;20041;-77
2023/09/14 05:02:17;;;;;;;3.70;1.40;;;7.20;99.90;;;;;;5042047;28;20411;-77
2023/09/14 05:04:43;;;;;;;3.80;1.60;;;7.20;99.90;;;;;;5054033;28;20040;-77
2023/09/14 05:07:09;;;;;;;2.33;1.67;;;7.20;99.90;;;;;;5045646;28;20512;-77
2023/09/14 05:09:34;;;;;;;4.90;3.08;;;7.20;99.90;;;;;;5061191;28;20526;-77
2023/09/14 05:12:00;;;;;;;3.55;1.60;;;7.20;99.90;;;;;;5059226;28;20051;-77
2023/09/14 05:14:25;;;;;;;2.50;1.30;;;7.20;99.90;;;;;;5057040;28;20048;-78
2023/09/14 05:16:51;;;;;;;4.68;1.60;;;7.10;99.90;;;;;;5049761;28;20047;-77
2023/09/14 05:19:17;;;;;;;4.03;1.40;;;7.20;99.90;;;;;;5023523;28;20057;-77
2023/09/14 05:21:43;;;;;;;4.85;1.80;;;7.10;99.90;;;;;;5050025;28;20093;-78
2023/09/14 05:24:08;;;;;;;3.17;1.67;;;7.10;99.90;;;;;;5035634;28;20403;-78
2023/09/14 05:26:34;;;;;;;1.98;1.42;;;7.10;99.90;;;;;;5041580;28;20048;-78
2023/09/14 05:29:00;;;;;;;4.25;1.52;;;7.10;99.90;;;;;;5028867;28;20044;-78
2023/09/14 05:31:25;;;;;;;3.63;1.75;;;7.20;99.90;;;;;;5050913;28;20045;-77
2023/09/14 05:33:51;;;;;;;4.25;1.95;;;7.20;99.90;;;;;;5049911;28;20047;-77
2023/09/14 05:36:16;;;;;;;5.45;1.55;;;7.20;99.90;;;;;;5045905;28;20076;-78
2023/09/14 05:38:42;;;;;;;6.63;1.98;;;7.20;99.90;;;;;;5048555;28;20089;-78
2023/09/14 05:41:08;;;;;;;3.72;2.00;;;7.20;99.90;;;;;;5049970;28;20140;-79
2023/09/14 05:43:33;;;;;;;4.53;1.95;;;7.20;99.90;;;;;;5050940;28;20482;-79
2023/09/14 05:46:01;;;;;;;10.30;2.35;;;7.30;99.90;;;;;;5036462;28;20545;-77
2023/09/14 05:48:28;;;;;;;4.70;2.00;;;7.40;99.90;;;;;;5048800;28;20117;-78
2023/09/14 05:50:53;;;;;;;4.00;2.03;;;7.40;99.90;;;;;;5023492;28;20045;-79
2023/09/14 05:53:19;;;;;;;4.28;1.85;;;7.40;99.90;;;;;;5043998;28;20051;-77
2023/09/14 05:55:44;;;;;;;5.88;2.30;;;7.50;99.90;;;;;;5063747;28;20048;-79
2023/09/14 05:58:10;;;;;;;6.15;1.90;;;7.60;99.90;;;;;;5062215;28;20123;-79
2023/09/14 06:00:36;;;;;;;3.05;1.52;;;7.70;99.90;;;;;;5063172;28;20158;-78
2023/09/14 06:03:02;;;;;;;4.85;1.50;;;7.80;99.90;;;;;;5043485;28;20107;-78
2023/09/14 06:05:28;;;;;;;5.50;2.70;;;7.90;99.90;;;;;;5041836;28;20116;-77
2023/09/14 06:07:54;;;;;;;2.20;1.60;;;8.10;99.90;;;;;;5030379;28;20669;-79
2023/09/14 06:10:20;;;;;;;2.33;1.40;;;8.20;99.90;;;;;;5043920;28;20033;-79
2023/09/14 06:12:46;;;;;;;5.32;1.65;;;8.40;99.90;;;;;;5034202;28;20185;-79
2023/09/14 06:15:11;;;;;;;3.28;1.63;;;8.50;99.90;;;;;;5057332;28;20123;-79
2023/09/14 06:17:37;;;;;;;2.15;1.27;;;8.70;99.90;;;;;;5039582;28;20041;-78
2023/09/14 06:20:05;;;;;;;2.40;1.40;;;8.80;99.90;;;;;;5043133;28;20070;-78
2023/09/14 06:22:31;;;;;;;2.22;1.17;;;8.80;99.90;;;;;;5052134;28;20053;-79
2023/09/14 06:24:57;;;;;;;2.47;1.30;;;8.80;99.90;;;;;;5046616;28;20052;-78
2023/09/14 06:27:22;;;;;;;1.42;1.05;;;8.90;99.90;;;;;;5051597;28;20211;-79
2023/09/14 06:29:48;;;;;;;2.00;1.20;;;8.90;99.90;;;;;;5050929;28;20048;-79
2023/09/14 06:32:14;;;;;;;2.30;1.48;;;8.90;99.90;;;;;;5055873;28;20440;-79
2023/09/14 06:34:39;;;;;;;3.35;1.65;;;8.90;99.90;;;;;;5037530;28;20040;-79
2023/09/14 06:37:05;;;;;;;4.65;1.63;;;8.90;99.90;;;;;;5050665;28;20098;-79
2023/09/14 06:39:31;;;;;;;3.10;1.67;;;8.90;99.90;;;;;;5034700;28;20048;-78
2023/09/14 06:41:56;;;;;;;3.17;1.20;;;8.90;99.90;;;;;;5046625;28;20057;-79
2023/09/14 06:44:23;;;;;;;4.10;1.50;;;9.00;99.90;;;;;;5042391;28;20048;-79
2023/09/14 06:46:49;;;;;;;3.55;1.70;;;9.00;99.90;;;;;;5044296;28;20094;-79
2023/09/14 06:49:14;;;;;;;3.95;1.60;;;9.00;99.90;;;;;;5026293;28;20049;-79
2023/09/14 06:51:43;;;;;;;4.45;1.50;;;9.10;99.90;;;;;;5047589;28;20534;-80
2023/09/14 06:54:09;;;;;;;3.03;1.35;;;9.10;99.90;;;;;;5034407;28;20032;-80
2023/09/14 06:56:34;;;;;;;4.65;1.40;;;9.20;99.90;;;;;;5049733;28;20040;-79
2023/09/14 06:59:01;;;;;;;3.85;1.52;;;9.30;99.90;;;;;;5023952;28;20047;-79
2023/09/14 07:01:28;;;;;;;2.92;1.42;;;9.30;99.90;;;;;;5042184;28;20044;-79
2023/09/14 07:03:54;;;;;;;7.70;1.65;;;9.40;99.90;;;;;;5032603;28;20039;-79
2023/09/14 07:06:19;;;;;;;5.88;1.80;;;9.40;99.90;;;;;;5046451;28;20048;-79
2023/09/14 07:08:45;;;;;;;2.65;1.15;;;9.50;99.90;;;;;;5046745;28;20040;-79
2023/09/14 07:11:12;;;;;;;5.15;1.30;;;9.50;99.90;;;;;;5046603;28;20506;-79
2023/09/14 07:13:37;;;;;;;4.70;1.27;;;9.60;99.90;;;;;;5048549;28;20048;-79
2023/09/14 07:16:03;;;;;;;3.25;1.10;;;9.70;99.90;;;;;;5040304;28;20568;-80
2023/09/14 07:18:31;;;;;;;3.67;1.55;;;9.80;99.90;;;;;;5048652;28;20036;-79
2023/09/14 07:20:59;;;;;;;3.25;1.65;;;9.90;99.90;;;;;;5024273;28;20037;-79
2023/09/14 07:23:25;;;;;;;5.72;1.42;;;10.00;99.90;;;;;;5041453;28;20033;-79
2023/09/14 07:25:51;;;;;;;5.03;1.08;;;10.20;99.90;;;;;;5020386;28;20083;-79
2023/09/14 07:28:18;;;;;;;4.20;0.93;;;10.30;99.90;;;;;;5048911;28;20085;-79
2023/09/14 07:30:44;;;;;;;1.60;0.88;;;10.50;99.90;;;;;;5050055;28;20040;-79
2023/09/14 07:33:13;;;;;;;9.05;0.93;;;10.60;99.90;;;;;;5047295;28;20036;-79
2023/09/14 07:35:41;;;;;;;6.65;1.00;;;10.80;99.90;;;;;;5029463;28;20048;-78
2023/09/14 07:38:14;;;;;;;4.60;0.88;;;10.80;99.90;;;;;;5028069;28;20044;-79
2023/09/14 07:40:42;;;;;;;3.40;0.90;;;11.00;99.90;;;;;;5048014;28;20091;-79
2023/09/14 07:43:08;;;;;;;3.10;0.70;;;11.10;99.90;;;;;;5049973;28;20040;-79
2023/09/14 07:45:34;;;;;;;7.25;0.93;;;11.30;99.90;;;;;;5028309;28;20043;-79
2023/09/14 07:48:01;;;;;;;8.77;0.80;;;11.50;99.90;;;;;;5047253;28;20036;-79
2023/09/14 07:50:27;;;;;;;3.10;0.73;;;11.60;99.90;;;;;;5063238;28;20045;-79
2023/09/14 07:52:52;;;;;;;2.38;0.68;;;11.70;99.90;;;;;;5037451;28;20116;-79
2023/09/14 07:55:18;;;;;;;4.75;1.27;;;11.80;99.90;;;;;;5048738;28;20429;-80
2023/09/14 07:57:44;;;;;;;2.20;0.68;;;11.90;99.90;;;;;;5049306;28;20045;-79
2023/09/14 08:00:10;;;;;;;1.45;0.80;;;12.00;99.90;;;;;;5049290;28;20044;-79
2023/09/14 08:02:35;;;;;;;4.28;0.85;;;12.10;99.90;;;;;;5043674;28;20135;-79
2023/09/14 08:05:01;;;;;;;1.90;0.98;;;12.20;99.90;;;;;;5028847;28;20123;-79
2023/09/14 08:07:27;;;;;;;2.95;0.98;;;12.30;99.90;;;;;;5028129;28;20119;-79
2023/09/14 08:09:53;;;;;;;2.90;1.30;;;12.40;99.90;;;;;;5043994;28;20151;-79
2023/09/14 08:12:18;;;;;;;3.05;0.70;;;12.50;99.90;;;;;;5048988;28;20056;-78
2023/09/14 08:14:44;;;;;;;2.40;0.77;;;12.40;99.90;;;;;;5034309;28;20082;-79
2023/09/14 08:17:11;;;;;;;5.97;1.17;;;12.50;99.90;;;;;;5028713;28;20098;-80
2023/09/14 08:19:36;;;;;;;4.30;0.88;;;12.50;96.10;;;;;;5043307;28;20049;-80
2023/09/14 08:22:03;;;;;;;6.60;0.93;;;12.60;90.60;;;;;;5047476;28;20043;-80
2023/09/14 08:24:29;;;;;;;4.78;1.08;;;12.80;73.60;;;;;;5049705;28;20090;-79
2023/09/14 08:26:55;;;;;;;2.47;0.80;;;13.00;30.20;;;;;;5033687;28;20111;-78
2023/09/14 08:29:21;;;;;;;4.88;1.10;;;13.20;14.50;;;;;;5029933;28;20041;-78
2023/09/14 08:31:49;;;;;;;6.18;1.10;;;13.40;1.00;;;;;;5046955;28;20445;-79
2023/09/14 08:34:14;;;;;;;5.40;0.80;;;13.60;1.00;;;;;;5037531;28;20082;-80
2023/09/14 08:36:41;;;;;;;3.17;0.80;;;13.70;1.00;;;;;;5032023;28;20071;-80
2023/09/14 08:39:06;;;;;;;3.33;0.75;;;13.80;1.00;;;;;;5042346;28;20473;-80
2023/09/14 08:41:37;;;;;;;2.40;0.70;;;14.00;1.00;;;;;;5047594;28;20051;-80
2023/09/14 08:44:04;;;;;;;4.45;0.80;;;14.20;1.00;;;;;;5028181;28;20037;-81
2023/09/14 08:46:32;;;;;;;3.95;0.90;;;14.40;1.00;;;;;;5056184;28;20036;-80
2023/09/14 08:48:59;;;;;;;7.00;1.52;;;14.50;99.90;;;;;;5051401;28;20051;-80
2023/09/14 08:51:28;;;;;;;3.22;1.10;;;14.60;99.90;;;;;;5037230;28;20024;-80
2023/09/14 08:53:55;;;;;;;4.85;0.93;;;14.60;99.90;;;;;;5027520;28;20108;-81
2023/09/14 08:56:25;;;;;;;7.88;2.15;;;14.60;99.90;;;;;;5047137;28;20083;-81
2023/09/14 08:58:52;;;;;;;1.55;0.80;;;14.70;99.90;;;;;;5049315;28;20542;-80
2023/09/14 09:01:18;;;;;;;4.78;0.90;;;15.00;99.90;;;;;;5037340;28;20071;-80
2023/09/14 09:03:44;;;;;;;4.05;0.90;;;15.20;99.90;;;;;;5051550;28;20082;-80
2023/09/14 09:06:11;;;;;;;5.63;0.90;;;15.40;99.90;;;;;;5059623;28;20044;-79
2023/09/14 09:08:37;;;;;;;4.85;1.02;;;15.50;99.90;;;;;;5035967;28;20048;-80
2023/09/14 09:11:04;;;;;;;3.13;0.95;;;15.60;99.90;;;;;;5045133;28;20063;-79
2023/09/14 09:13:35;;;;;;;2.35;0.70;;;15.80;98.50;;;;;;5043888;28;20202;-79
2023/09/14 09:16:01;;;;;;;2.28;1.00;;;15.90;25.50;;;;;;5032353;28;20059;-80
2023/09/14 09:18:27;;;;;;;5.07;1.02;;;16.00;29.60;;;;;;5033325;28;20487;-80
2023/09/14 09:20:53;;;;;;;4.07;1.27;;;16.10;1.00;;;;;;5036984;28;20033;-81
2023/09/14 09:23:21;;;;;;;2.63;0.90;;;16.20;1.00;;;;;;5055658;28;20055;-79
2023/09/14 09:25:51;;;;;;;5.30;1.10;;;16.40;1.00;;;;;;5068452;28;20049;-79
2023/09/14 09:28:17;;;;;;;3.40;1.10;;;16.60;1.00;;;;;;5048234;28;20052;-79
2023/09/14 09:30:44;;;;;;;3.17;1.00;;;16.80;99.90;;;;;;5036768;28;20040;-80
2023/09/14 09:33:09;;;;;;;3.65;0.90;;;17.20;99.90;;;;;;5041518;28;20051;-79
2023/09/14 09:35:35;;;;;;;6.13;1.10;;;18.40;99.90;;;;;;5061096;28;20461;-79
2023/09/14 09:38:15;;;;;;;4.43;0.70;;;20.00;99.90;;;;;;5041163;28;20058;-79
2023/09/14 09:40:43;;;;;;;4.22;1.02;;;21.40;98.60;;;;;;5054040;28;20079;-78
2023/09/14 09:43:09;;;;;;;2.80;0.85;;;22.60;1.00;;;;;;5054738;28;20044;-78
2023/09/14 09:45:40;;;;;;;2.42;1.10;;;23.60;1.00;;;;;;5051923;28;20068;-79
2023/09/14 09:48:08;;;;;;;3.85;1.35;;;24.30;1.00;;;;;;5059395;28;20036;-79
2023/09/14 09:50:34;;;;;;;8.63;1.38;;;24.80;1.00;;;;;;5051990;28;20041;-79
2023/09/14 09:53:00;;;;;;;2.92;0.98;;;25.50;1.00;;;;;;5047655;28;20090;-79
2023/09/14 09:55:30;;;;;;;6.90;1.27;;;25.90;1.00;;;;;;5041225;28;20080;-78
2023/09/14 09:57:59;;;;;;;5.93;0.90;;;26.00;1.00;;;;;;5050334;28;20040;-79
2023/09/14 10:00:36;;;;;;;1.75;0.73;;;26.50;1.00;;;;;;5054606;28;20035;-80
2023/09/14 10:03:03;;;;;;;2.78;0.80;;;27.10;1.00;;;;;;5044051;28;20032;-79
2023/09/14 10:05:40;;;;;;;3.65;1.38;;;27.70;1.00;;;;;;5016670;28;20040;-79
2023/09/14 10:08:14;;;;;;;3.42;0.85;;;27.20;1.00;;;;;;5048836;28;20036;-79
2023/09/14 10:10:41;;;;;;;6.03;0.98;;;26.00;1.00;;;;;;5022862;28;20072;-79
2023/09/14 10:13:16;;;;;;;2.55;0.82;;;26.00;1.00;;;;;;5044446;28;20384;-79
2023/09/14 10:15:42;;;;;;;1.67;0.70;;;25.60;1.00;;;;;;5033125;28;20456;-79
2023/09/14 10:18:09;;;;;;;4.25;1.00;;;25.80;1.00;;;;;;5043901;28;20105;-80
2023/09/14 10:20:35;;;;;;;3.25;1.08;;;25.10;1.00;;;;;;5039484;28;20487;-80
2023/09/14 10:23:01;;;;;;;5.65;1.10;;;24.10;1.00;;;;;;5052427;28;20052;-79
2023/09/14 10:25:28;;;;;;;3.83;1.08;;;24.40;1.00;;;;;;5048441;28;20052;-79
2023/09/14 10:27:53;;;;;;;2.25;1.20;;;25.70;1.00;;;;;;5035886;28;20111;-79
2023/09/14 10:30:20;;;;;;;4.15;1.20;;;26.90;1.00;;;;;;5049695;28;20742;-80
2023/09/14 10:32:52;;;;;;;3.72;1.50;;;27.90;1.00;;;;;;5041131;28;20047;-81
2023/09/14 10:35:20;;;;;;;2.25;1.02;;;28.80;1.00;;;;;;5034657;28;20491;-78
2023/09/14 10:37:46;;;;;;;3.55;1.23;;;29.40;1.00;;;;;;5034312;28;20049;-79
2023/09/14 10:40:13;;;;;;;2.40;1.20;;;30.10;1.00;;;;;;5049714;28;20063;-78
2023/09/14 10:42:41;;;;;;;2.20;1.00;;;30.70;1.00;;;;;;5032364;28;20037;-79
2023/09/14 10:45:08;;;;;;;3.97;1.02;;;31.30;1.00;;;;;;5037994;28;20478;-79
2023/09/14 10:47:37;;;;;;;2.25;1.00;;;30.80;1.00;;;;;;5039511;28;20067;-81
2023/09/14 10:50:06;;;;;;;3.20;1.00;;;30.00;1.00;;;;;;5035707;28;20141;-79
2023/09/14 10:52:34;;;;;;;3.15;0.90;;;28.60;1.00;;;;;;5045305;28;20048;-79
2023/09/14 10:55:05;;;;;;;2.85;0.93;;;27.50;1.00;;;;;;5038657;28;20048;-79
2023/09/14 10:57:31;;;;;;;4.22;1.40;;;27.30;1.00;;;;;;5048190;28;20056;-80
2023/09/14 10:59:58;;;;;;;2.83;0.85;;;27.60;1.00;;;;;;5032550;28;20042;-79
2023/09/14 11:02:36;;;;;;;1.52;1.10;;;28.30;1.00;;;;;;5033581;28;20040;-79
2023/09/14 11:05:14;;;;;;;5.65;1.40;;;29.00;1.00;;;;;;5050997;28;20043;-79
2023/09/14 11:07:46;;;;;;;3.28;1.40;;;30.10;1.00;;;;;;5057836;28;20040;-79
2023/09/14 11:10:17;;;;;;;2.80;1.02;;;30.00;1.00;;;;;;5050189;28;20571;-79
2023/09/14 11:12:43;;;;;;;5.20;1.30;;;30.60;1.00;;;;;;5023262;28;20048;-78
2023/09/14 11:15:14;;;;;;;3.05;1.23;;;31.50;1.00;;;;;;5049054;28;20106;-79
2023/09/14 11:17:45;;;;;;;2.17;1.05;;;32.00;1.00;;;;;;5024465;28;20048;-79
2023/09/14 11:20:37;;;;;;;2.08;0.90;;;31.70;1.00;;;;;;5050206;28;20408;-78
2023/09/14 11:23:04;;;;;;;2.50;0.90;;;31.50;1.00;;;;;;5021314;28;20441;-79
2023/09/14 11:25:33;;;;;;;5.03;1.30;;;31.70;1.00;;;;;;5034476;28;20040;-78
2023/09/14 11:28:00;;;;;;;2.78;1.10;;;31.30;1.00;;;;;;5058159;28;20040;-78
2023/09/14 11:30:27;;;;;;;3.63;1.05;;;30.10;1.00;;;;;;5054672;28;20040;-79
2023/09/14 11:32:54;;;;;;;4.15;1.02;;;30.00;1.00;;;;;;5036525;28;20059;-78
2023/09/14 11:35:39;;;;;;;2.53;1.13;;;30.40;1.00;;;;;;5035070;28;20045;-79
2023/09/14 11:38:16;;;;;;;7.88;1.42;;;30.10;1.00;;;;;;5032832;28;20046;-79
2023/09/14 11:40:42;;;;;;;4.93;1.17;;;28.70;1.00;;;;;;5027170;28;20052;-78
2023/09/14 11:43:10;;;;;;;4.78;1.60;;;27.30;1.00;;;;;;5034122;28;20044;-78
2023/09/14 11:45:41;;;;;;;2.67;1.13;;;26.00;1.00;;;;;;5053861;28;20045;-78
2023/09/14 11:48:08;;;;;;;2.78;1.13;;;24.80;1.00;;;;;;5029383;28;20044;-78
2023/09/14 11:50:34;;;;;;;5.00;1.52;;;23.80;1.00;;;;;;5034131;28;20072;-78
2023/09/14 11:53:00;;;;;;;2.95;0.88;;;23.20;1.00;;;;;;5050925;28;20040;-78
2023/09/14 11:55:26;;;;;;;3.78;1.65;;;22.60;1.00;;;;;;5044661;28;20316;-78
2023/09/14 11:57:57;;;;;;;2.53;1.15;;;22.20;1.00;;;;;;5050641;28;20173;-80
2023/09/14 12:00:24;;;;;;;6.18;1.40;;;21.90;1.00;;;;;;5029718;28;20044;-77
2023/09/14 12:02:50;;;;;;;3.80;1.10;;;21.70;1.00;;;;;;5033285;28;20037;-79
2023/09/14 12:05:16;;;;;;;7.18;1.75;;;21.60;1.00;;;;;;5029531;28;20097;-79
2023/09/14 12:07:43;;;;;;;2.95;0.98;;;21.50;1.00;;;;;;5024147;28;20131;-78
2023/09/14 12:10:21;;;;;;;3.53;1.00;;;21.50;1.00;;;;;;5055138;28;20793;-78
2023/09/14 12:12:47;;;;;;;3.67;1.15;;;23.10;1.00;;;;;;5065153;28;20090;-79
2023/09/14 12:15:18;;;;;;;6.63;1.40;;;25.50;1.00;;;;;;5044985;28;20063;-79
2023/09/14 12:17:50;;;;;;;3.67;1.10;;;27.60;1.00;;;;;;5026524;28;20048;-78
2023/09/14 12:20:16;;;;;;;5.95;1.63;;;29.40;1.00;;;;;;5025861;28;20041;-77
2023/09/14 12:22:42;;;;;;;2.67;1.25;;;30.20;1.00;;;;;;5031673;28;20044;-78
2023/09/14 12:25:09;;;;;;;2.40;1.23;;;30.10;1.00;;;;;;5062286;28;20051;-78
2023/09/14 12:27:36;;;;;;;5.57;1.30;;;30.30;1.00;;;;;;5039351;28;20037;-78
2023/09/14 12:30:07;;;;;;;2.22;1.15;;;30.50;1.00;;;;;;5031915;28;20052;-78
2023/09/14 12:32:35;;;;;;;2.92;1.27;;;31.00;1.00;;;;;;5036543;28;20048;-79
2023/09/14 12:35:02;;;;;;;2.42;1.30;;;31.60;1.00;;;;;;5047608;28;20044;-78
2023/09/14 12:37:28;;;;;;;4.82;1.05;;;31.90;1.00;;;;;;5051316;28;20119;-78
2023/09/14 12:39:54;;;;;;;2.83;1.02;;;31.70;1.00;;;;;;5052046;28;20490;-77
2023/09/14 12:42:24;;;;;;;3.38;1.38;;;31.80;1.00;;;;;;5036651;28;20044;-78
2023/09/14 12:44:52;;;;;;;4.15;1.17;;;32.60;1.00;;;;;;5053440;28;20062;-79
2023/09/14 12:47:18;;;;;;;4.10;1.15;;;32.90;1.00;;;;;;5056904;28;20048;-78
2023/09/14 12:49:44;;;;;;;4.55;1.45;;;32.00;1.00;;;;;;5036312;28;20047;-78
2023/09/14 12:52:10;;;;;;;5.22;1.55;;;30.90;1.00;;;;;;5036772;28;20051;-78
2023/09/14 12:54:37;;;;;;;2.35;1.20;;;29.50;1.00;;;;;;5033862;28;20479;-78